15:20
Airports
History
Links
Donate
Help keep this website running!
PayPal
Bitcoin
This page is community maintained. The information is intended for PC simulator navigation or reference.
Always use approved charts for navigation.
UHSS
KHOMUTOVO
KHOMUTOVO (UHSS)
Khomutovo, Sakhalinskaya oblast, Russian Federation (693014)
(C)
Lat/Lng:46° 53' 8.1" N / 142° 43' 3.1" E
46.885582 / 142.717529
Elevation:59'ft / 18mMSL
ID / ICAO:UHSS
Runways:1
Longest:01-19
Concrete 3,380m / 11,088ft
Controlled:Yes
METAR15:00 GMT 2017-11-20
Altimeter: 29.85
Visibility: 6.2 statute miles
Wind: 0 knots (from 000°)
Temp: -13°c / 9°f
Humidity: 84.8%

METAR: UHSS 201500Z 00000MPS 9999 SCT032CB M13/M15 Q1011 RMK MT OBSC QFE757/1009

(Powered by phpweather)
Airport Radio Frequencies
Tower: 120.6
Nearby VORs <50NM
Nearby NDBs
Runway 01 / 19
Dimensions:3379.6 x 45.1m 11088' x 148'ft
Surface:Concrete
Edge Lights:Low intensity
Runway 01 [A]Runway 19 [B]
Heading:000°TH 180°TH
Lat:
Lng:
46° 52' 13.3"N
142° 43' 2.18"E
46° 54' 2.89"N
142° 43' 4.03"E
ALS:MALSMALS
User Notes and Comments
46° 53' 8.1" N / 142° 43' 3.1" E
Distance To
Airport ID:
Nearby Airports
(C) WAKKANAI 111.4 NM
RJCW ( WX ) SSW 203°
(C) Rebun 127.3 NM
RJCR SW 218°
(C) RISHIRI 135.2 NM
RJER SSW 212°
(C) MONBETSU 181.4 NM
RJEB ( WX ) S 169°
(C) Daicolo-Aibetsu 207.7 NM
RJX2 S 181°
(C) MEMANBETSU 219.1 NM
RJCM ( WX ) SSE 161°
(C) Asahikawa 222.5 NM
RJEC ( WX ) S 183°
VFR Chart
Flight Planning at SkyVector.com